Cookley, United Kingdom
Current Conditions -  °F | °C
As of 9:50 PM on Sunday 23 Nov 2014 (Local Time) from EGUW Reporting Station
Broken Clouds Broken Clouds  
Wind Chill: 37°   Ceiling: 16000
Heat Index: 43°   Visibility: 6mi
Dew Point: 43°   Wind: 10mph
Humidity: 100%   Direction: 300°WNW
Pressure: 30.09"   Gusts: NA
Location:  52.32°N, 1.45°E
Report Text: EGUW 232150Z 30009KT 9999 SCT007 BKN160 06/06 Q1019 GRN
Loading
Personal Weather Stations






























Interactive Weather Map New forecast layout! Learn more

10-Day Weather Forecast

Advertisements
Track Severe Weather on mobile